createdAt,value
2023-07-07T00:02:24.250Z,78.54
2023-07-07T00:04:51.918Z,78.98
2023-07-07T00:07:19.077Z,79.06
2023-07-07T00:09:45.848Z,79.06
2023-07-07T00:12:13.755Z,78.83
2023-07-07T00:14:40.653Z,79.15
2023-07-07T00:17:07.359Z,79.11
2023-07-07T00:19:34.891Z,79.49
2023-07-07T00:22:03.096Z,79.40
2023-07-07T00:24:29.964Z,79.57
2023-07-07T00:26:56.692Z,79.30
2023-07-07T00:29:23.753Z,79.35
2023-07-07T00:31:50.520Z,79.20
2023-07-07T00:34:17.242Z,79.05
2023-07-07T00:36:43.996Z,79.23
2023-07-07T00:39:10.958Z,79.40
2023-07-07T00:41:37.740Z,79.44
2023-07-07T00:44:07.504Z,79.15
2023-07-07T00:46:37.674Z,79.64
2023-07-07T00:49:09.144Z,79.57
2023-07-07T00:51:44.983Z,79.25
2023-07-07T00:54:17.692Z,79.39
2023-07-07T00:56:49.495Z,79.23
2023-07-07T00:59:21.506Z,79.32
2023-07-07T01:01:53.469Z,79.30
2023-07-07T01:04:22.507Z,79.54
2023-07-07T01:06:53.175Z,79.41
2023-07-07T01:09:19.980Z,79.45
2023-07-07T01:11:47.662Z,79.70
2023-07-07T01:14:21.741Z,80.08
2023-07-07T01:16:57.249Z,80.59
2023-07-07T01:19:33.345Z,80.35
2023-07-07T01:22:20.188Z,80.16
2023-07-07T01:24:52.661Z,80.02
2023-07-07T01:27:33.014Z,80.22
2023-07-07T01:30:26.485Z,79.93
2023-07-07T01:32:53.727Z,79.87
2023-07-07T01:35:22.138Z,79.81
2023-07-07T01:37:57.381Z,79.48
2023-07-07T01:40:50.812Z,79.94
2023-07-07T01:43:25.122Z,80.01
2023-07-07T01:46:12.294Z,80.06
2023-07-07T01:48:55.947Z,80.15
2023-07-07T01:51:28.849Z,80.07
2023-07-07T01:53:57.826Z,79.95
2023-07-07T01:56:29.125Z,79.76
2023-07-07T01:58:56.115Z,79.93
2023-07-07T02:01:22.887Z,79.84
2023-07-07T02:03:49.726Z,80.08
2023-07-07T02:06:16.429Z,81.22
2023-07-07T02:08:45.288Z,81.33
2023-07-07T02:11:12.559Z,80.78
2023-07-07T02:13:39.485Z,80.68
2023-07-07T02:16:07.801Z,80.87
2023-07-07T02:18:38.546Z,81.02
2023-07-07T02:21:06.187Z,80.68
2023-07-07T02:23:33.146Z,80.82
2023-07-07T02:25:59.993Z,81.01
2023-07-07T02:28:26.664Z,80.93
2023-07-07T02:30:54.764Z,81.09
2023-07-07T02:33:31.360Z,82.06
2023-07-07T02:36:05.967Z,81.60
2023-07-07T02:38:33.912Z,81.78
2023-07-07T02:41:00.919Z,81.58
2023-07-07T02:43:28.807Z,82.68
2023-07-07T02:45:56.685Z,82.30
2023-07-07T02:48:23.509Z,82.12
2023-07-07T02:50:57.573Z,82.24
2023-07-07T02:53:29.338Z,82.44
2023-07-07T02:55:56.451Z,82.39
2023-07-07T02:58:23.752Z,82.52
2023-07-07T03:00:51.712Z,82.39
2023-07-07T03:03:20.221Z,82.22
2023-07-07T03:05:47.324Z,82.96
2023-07-07T03:08:14.309Z,83.03
2023-07-07T03:10:42.429Z,82.85
2023-07-07T03:13:10.667Z,83.18
2023-07-07T03:15:40.491Z,83.71
2023-07-07T03:18:15.491Z,84.40
2023-07-07T03:20:48.559Z,83.76
2023-07-07T03:23:18.207Z,83.65
2023-07-07T03:25:45.086Z,83.44
2023-07-07T03:28:12.674Z,82.90
2023-07-07T03:30:41.642Z,82.95
2023-07-07T03:33:19.007Z,83.31
2023-07-07T03:35:47.252Z,82.78
2023-07-07T03:38:15.131Z,82.67
2023-07-07T03:40:49.654Z,82.45
2023-07-07T03:43:20.352Z,82.36
2023-07-07T03:45:47.300Z,82.68
2023-07-07T03:48:14.187Z,82.34
2023-07-07T03:50:41.024Z,82.44
2023-07-07T03:53:07.743Z,82.72
2023-07-07T03:55:35.127Z,82.79
2023-07-07T03:58:02.629Z,82.41
2023-07-07T04:00:29.299Z,82.28
2023-07-07T04:02:56.118Z,82.10
2023-07-07T04:05:23.085Z,82.15
2023-07-07T04:07:49.862Z,82.48
2023-07-07T04:10:17.184Z,82.17
2023-07-07T04:12:43.945Z,82.54
2023-07-07T04:15:11.003Z,82.49
2023-07-07T04:17:37.719Z,82.47
2023-07-07T04:20:06.122Z,82.05
2023-07-07T04:22:32.852Z,82.59
2023-07-07T04:25:14.201Z,82.24
2023-07-07T04:27:42.592Z,82.83
2023-07-07T04:30:10.587Z,82.56
2023-07-07T04:32:38.705Z,82.43
2023-07-07T04:35:06.205Z,82.46
2023-07-07T04:37:33.264Z,82.37
2023-07-07T04:40:00.058Z,82.29
2023-07-07T04:42:26.668Z,82.57
2023-07-07T04:44:53.627Z,82.27
2023-07-07T04:47:20.299Z,82.12
2023-07-07T04:49:47.028Z,82.03
2023-07-07T04:52:13.729Z,81.89
2023-07-07T04:54:40.486Z,81.87
2023-07-07T04:57:07.355Z,81.76
2023-07-07T04:59:34.118Z,81.58
2023-07-07T05:02:01.103Z,81.45
2023-07-07T05:04:28.097Z,81.79
2023-07-07T05:06:54.919Z,81.69
2023-07-07T05:09:21.585Z,81.54
2023-07-07T05:11:48.594Z,81.63
2023-07-07T05:14:15.437Z,81.36
2023-07-07T05:16:42.646Z,81.23
2023-07-07T05:19:09.751Z,80.96
2023-07-07T05:21:36.491Z,80.93
2023-07-07T05:24:03.699Z,80.85
2023-07-07T05:26:30.524Z,80.76
2023-07-07T05:29:00.687Z,80.62
2023-07-07T05:31:27.537Z,81.00
2023-07-07T05:33:54.436Z,80.68
2023-07-07T05:36:21.392Z,80.50
2023-07-07T05:38:48.183Z,80.44
2023-07-07T05:41:15.331Z,80.31
2023-07-07T05:43:42.401Z,80.48
2023-07-07T05:46:22.860Z,80.12
2023-07-07T05:48:49.980Z,79.56
2023-07-07T05:51:19.253Z,79.67
2023-07-07T05:53:47.748Z,79.49
2023-07-07T05:56:25.163Z,79.40
2023-07-07T05:58:55.304Z,79.11
2023-07-07T06:01:22.869Z,78.84
2023-07-07T06:03:49.740Z,78.77
2023-07-07T06:06:16.581Z,78.31
2023-07-07T06:08:43.467Z,78.15
2023-07-07T06:11:10.307Z,78.17
2023-07-07T06:13:37.192Z,78.15
2023-07-07T06:16:06.004Z,78.02
2023-07-07T06:18:32.886Z,77.74
2023-07-07T06:21:00.966Z,77.73
2023-07-07T06:23:29.602Z,77.85
2023-07-07T06:25:56.293Z,77.52
2023-07-07T06:28:23.267Z,77.67
2023-07-07T06:30:51.729Z,77.48
2023-07-07T06:33:21.116Z,77.17
2023-07-07T06:35:50.174Z,76.93
2023-07-07T06:38:17.707Z,76.66
2023-07-07T06:40:47.054Z,76.40
2023-07-07T06:43:18.427Z,76.01
2023-07-07T06:45:50.896Z,76.08
2023-07-07T06:48:17.778Z,75.94
2023-07-07T06:50:44.617Z,75.71
2023-07-07T06:53:11.504Z,75.57
2023-07-07T06:55:38.960Z,75.66
2023-07-07T06:58:05.744Z,75.44
2023-07-07T07:00:33.076Z,74.93
2023-07-07T07:02:59.869Z,74.97
2023-07-07T07:05:26.721Z,74.88
2023-07-07T07:07:53.590Z,74.93
2023-07-07T07:10:20.447Z,74.64
2023-07-07T07:12:48.843Z,74.66
2023-07-07T07:15:15.934Z,73.92
2023-07-07T07:17:42.753Z,73.47
2023-07-07T07:20:11.755Z,73.01
2023-07-07T07:22:38.486Z,72.63
2023-07-07T07:25:05.801Z,72.99
2023-07-07T07:27:32.497Z,72.99
2023-07-07T07:29:59.288Z,72.30
2023-07-07T07:32:25.984Z,71.36
2023-07-07T07:34:52.696Z,71.71
2023-07-07T07:37:19.588Z,71.66
2023-07-07T07:39:46.283Z,71.12
2023-07-07T07:42:12.956Z,70.93
2023-07-07T07:44:39.652Z,70.09
2023-07-07T07:47:06.752Z,70.05
2023-07-07T07:49:33.485Z,70.32
2023-07-07T07:52:00.554Z,70.59
2023-07-07T07:54:27.280Z,69.43
2023-07-07T07:56:55.963Z,67.59
2023-07-07T07:59:23.781Z,66.97
2023-07-07T08:01:52.026Z,66.19
2023-07-07T08:04:19.525Z,66.40
2023-07-07T08:06:46.325Z,66.66
2023-07-07T08:09:13.109Z,66.51
2023-07-07T08:11:43.058Z,66.08
2023-07-07T08:14:13.703Z,66.02
2023-07-07T08:16:40.619Z,65.70
2023-07-07T08:19:08.497Z,66.61
2023-07-07T08:21:36.469Z,66.06
2023-07-07T08:24:06.118Z,65.33
2023-07-07T08:26:34.313Z,62.07
2023-07-07T08:29:01.593Z,64.44
2023-07-07T08:31:28.574Z,62.60
2023-07-07T08:34:00.627Z,63.13
2023-07-07T08:36:29.871Z,63.38
2023-07-07T08:39:17.551Z,63.94
2023-07-07T08:41:53.383Z,61.80
2023-07-07T08:44:23.062Z,61.74
2023-07-07T08:46:58.898Z,61.06
2023-07-07T08:49:39.068Z,59.88
2023-07-07T08:52:27.776Z,60.44
2023-07-07T08:55:00.237Z,60.10
2023-07-07T08:57:31.484Z,60.24
2023-07-07T09:00:17.703Z,60.17
2023-07-07T09:02:47.440Z,59.99
2023-07-07T09:05:59.159Z,60.39
2023-07-07T09:09:00.067Z,60.07
2023-07-07T09:11:53.220Z,59.91
2023-07-07T09:14:20.486Z,59.26
2023-07-07T09:16:50.353Z,58.43
2023-07-07T09:19:25.493Z,58.45
2023-07-07T09:22:00.465Z,58.84
2023-07-07T09:24:53.404Z,55.90
2023-07-07T09:27:30.763Z,54.88
2023-07-07T09:30:11.179Z,55.17
2023-07-07T09:32:38.804Z,52.82
2023-07-07T09:35:14.272Z,53.93
2023-07-07T09:38:23.166Z,54.14
2023-07-07T09:41:00.713Z,53.10
2023-07-07T09:44:00.359Z,53.16
2023-07-07T09:46:47.576Z,53.34
2023-07-07T09:49:35.348Z,52.54
2023-07-07T09:52:36.767Z,53.10
2023-07-07T09:55:12.923Z,51.77
2023-07-07T09:57:46.122Z,53.07
2023-07-07T10:00:21.012Z,53.31
2023-07-07T10:02:51.772Z,49.73
2023-07-07T10:05:25.779Z,51.51
2023-07-07T10:07:52.987Z,52.12
2023-07-07T10:10:19.969Z,51.09
2023-07-07T10:12:46.896Z,49.71
2023-07-07T10:15:47.651Z,49.58
2023-07-07T10:18:28.392Z,49.63
2023-07-07T10:21:09.678Z,49.32
2023-07-07T10:23:39.345Z,48.40
2023-07-07T10:26:06.860Z,46.22
2023-07-07T10:28:34.174Z,48.92
2023-07-07T10:31:02.267Z,47.06
2023-07-07T10:33:29.251Z,46.14
2023-07-07T10:35:55.975Z,45.32
2023-07-07T10:38:24.154Z,45.87
2023-07-07T10:40:51.434Z,45.98
2023-07-07T10:43:19.655Z,45.55
2023-07-07T10:45:48.716Z,45.47
2023-07-07T10:48:16.566Z,44.69
2023-07-07T10:50:52.222Z,45.51
2023-07-07T10:53:23.279Z,44.62
2023-07-07T10:56:09.387Z,45.30
2023-07-07T10:58:54.397Z,44.24
2023-07-07T11:02:05.254Z,43.70
2023-07-07T11:04:46.131Z,44.48
2023-07-07T11:07:16.082Z,45.27
2023-07-07T11:10:12.146Z,44.95
2023-07-07T11:12:51.246Z,44.03
2023-07-07T11:15:37.377Z,44.82
2023-07-07T11:18:18.682Z,45.21
2023-07-07T11:21:06.475Z,44.64
2023-07-07T11:23:39.238Z,43.02
2023-07-07T11:26:27.696Z,43.25
2023-07-07T11:29:10.355Z,42.98
2023-07-07T11:32:06.702Z,44.14
2023-07-07T11:35:04.955Z,44.74
2023-07-07T11:37:45.849Z,44.66
2023-07-07T11:40:43.984Z,44.12
2023-07-07T11:43:16.563Z,44.58
2023-07-07T11:46:01.301Z,44.85
2023-07-07T11:48:54.547Z,45.56
2023-07-07T11:51:50.304Z,44.65
2023-07-07T11:54:35.912Z,44.12
2023-07-07T11:57:49.814Z,44.52
2023-07-07T12:00:25.813Z,44.91
2023-07-07T12:03:07.657Z,45.69
2023-07-07T12:05:37.821Z,46.20
2023-07-07T12:08:16.108Z,47.00
2023-07-07T12:10:51.242Z,46.77
2023-07-07T12:13:26.877Z,46.16
2023-07-07T12:16:21.472Z,46.52
2023-07-07T12:18:52.276Z,46.50
2023-07-07T12:21:34.531Z,47.02
2023-07-07T12:24:29.527Z,47.55
2023-07-07T12:27:09.216Z,48.89
2023-07-07T12:29:40.174Z,50.21
2023-07-07T12:32:08.132Z,50.44
2023-07-07T12:34:43.830Z,51.10
2023-07-07T12:37:22.501Z,51.93
2023-07-07T12:40:04.789Z,52.52
2023-07-07T12:42:33.342Z,53.16
2023-07-07T12:45:31.357Z,54.00
2023-07-07T12:48:19.371Z,54.50
2023-07-07T12:50:48.394Z,55.34
2023-07-07T12:53:22.200Z,55.49
2023-07-07T12:56:07.453Z,56.51
2023-07-07T12:58:37.034Z,56.56
2023-07-07T13:01:30.227Z,56.54
2023-07-07T13:04:08.275Z,57.15
2023-07-07T13:06:40.445Z,57.73
2023-07-07T13:09:13.317Z,57.32
2023-07-07T13:11:47.428Z,57.88
2023-07-07T13:14:26.556Z,59.00
2023-07-07T13:16:55.666Z,59.44
2023-07-07T13:19:23.365Z,59.21
2023-07-07T13:21:51.511Z,60.29
2023-07-07T13:24:21.343Z,60.31
2023-07-07T13:26:48.138Z,60.16
2023-07-07T13:29:14.891Z,61.76
2023-07-07T13:31:43.187Z,61.66
2023-07-07T13:34:18.464Z,62.11
2023-07-07T13:36:47.205Z,61.57
2023-07-07T13:39:15.298Z,61.80
2023-07-07T13:41:46.499Z,61.98
2023-07-07T13:44:18.857Z,61.89
2023-07-07T13:46:50.510Z,62.15
2023-07-07T13:49:19.905Z,62.39
2023-07-07T13:51:52.999Z,62.57
2023-07-07T13:54:22.542Z,63.40
2023-07-07T13:57:03.297Z,64.43
2023-07-07T13:59:30.953Z,64.66
2023-07-07T14:01:59.289Z,64.40
2023-07-07T14:04:37.329Z,62.52
2023-07-07T14:07:04.958Z,61.93
2023-07-07T14:09:42.263Z,61.30
2023-07-07T14:12:15.361Z,60.59
2023-07-07T14:14:43.454Z,61.62
2023-07-07T14:17:22.055Z,61.79
2023-07-07T14:20:04.093Z,62.01
2023-07-07T14:22:32.954Z,62.21
2023-07-07T14:24:59.917Z,62.83
2023-07-07T14:27:27.623Z,63.21
2023-07-07T14:29:58.479Z,64.72
2023-07-07T14:32:33.816Z,65.21
2023-07-07T14:35:00.710Z,64.64
2023-07-07T14:37:34.330Z,63.55
2023-07-07T14:40:31.006Z,63.13
2023-07-07T14:43:00.217Z,63.68
2023-07-07T14:45:33.426Z,63.89
2023-07-07T14:48:02.034Z,63.91
2023-07-07T14:50:30.079Z,63.92
2023-07-07T14:52:59.141Z,64.47
2023-07-07T14:55:29.525Z,64.77
2023-07-07T14:58:01.598Z,65.35
2023-07-07T15:00:31.392Z,66.25
2023-07-07T15:02:58.338Z,66.06
2023-07-07T15:05:34.110Z,65.75
2023-07-07T15:08:29.773Z,65.86
2023-07-07T15:11:12.343Z,66.37
2023-07-07T15:13:40.298Z,65.04
2023-07-07T15:16:07.128Z,64.36
2023-07-07T15:18:33.888Z,64.43
2023-07-07T15:21:00.681Z,65.00
2023-07-07T15:23:27.547Z,65.42
2023-07-07T15:25:54.815Z,65.52
2023-07-07T15:28:21.494Z,65.92
2023-07-07T15:30:48.663Z,65.56
2023-07-07T15:33:17.724Z,66.65
2023-07-07T15:35:45.128Z,67.26
2023-07-07T15:38:17.952Z,66.63
2023-07-07T15:40:44.782Z,66.39
2023-07-07T15:43:11.770Z,67.65
2023-07-07T15:45:48.669Z,67.67
2023-07-07T15:48:20.401Z,68.83
2023-07-07T15:50:47.152Z,69.85
2023-07-07T15:53:13.936Z,70.08
2023-07-07T15:55:40.682Z,68.61
2023-07-07T15:58:11.447Z,68.61
2023-07-07T16:00:42.079Z,69.31
2023-07-07T16:03:08.991Z,69.04
2023-07-07T16:05:36.344Z,69.34
2023-07-07T16:08:03.137Z,69.76
2023-07-07T16:10:29.895Z,71.38
2023-07-07T16:12:56.788Z,71.55
2023-07-07T16:15:26.162Z,71.08
2023-07-07T16:17:55.036Z,70.52
2023-07-07T16:20:26.898Z,70.41
2023-07-07T16:22:54.697Z,70.14
2023-07-07T16:25:21.885Z,70.71
2023-07-07T16:27:48.731Z,70.79
2023-07-07T16:30:36.214Z,71.20
2023-07-07T16:33:03.195Z,71.14
2023-07-07T16:35:30.052Z,71.06
2023-07-07T16:37:56.832Z,71.92
2023-07-07T16:40:44.385Z,71.92
2023-07-07T16:43:11.105Z,71.44
2023-07-07T16:45:37.920Z,72.27
2023-07-07T16:48:12.890Z,72.91
2023-07-07T16:50:39.676Z,72.13
2023-07-07T16:53:06.251Z,72.06
2023-07-07T16:55:34.212Z,71.63
2023-07-07T16:58:01.049Z,71.99
2023-07-07T17:00:32.794Z,71.86
2023-07-07T17:02:59.836Z,71.98
2023-07-07T17:05:26.752Z,72.07
2023-07-07T17:07:53.574Z,71.88
2023-07-07T17:10:29.459Z,72.52
2023-07-07T17:12:56.298Z,73.66
2023-07-07T17:15:23.025Z,73.81
2023-07-07T17:17:49.928Z,73.49
2023-07-07T17:20:23.930Z,74.65
2023-07-07T17:22:52.023Z,74.71
2023-07-07T17:25:20.063Z,73.97
2023-07-07T17:27:49.205Z,74.98
2023-07-07T17:30:26.271Z,74.94
2023-07-07T17:32:53.760Z,75.31
2023-07-07T17:35:23.376Z,75.38
2023-07-07T17:37:50.882Z,75.99
2023-07-07T17:40:39.696Z,75.78
2023-07-07T17:43:06.761Z,75.66
2023-07-07T17:45:33.743Z,75.00
2023-07-07T17:48:00.679Z,75.10
2023-07-07T17:50:41.214Z,75.23
2023-07-07T17:53:08.089Z,74.94
2023-07-07T17:55:37.221Z,75.14
2023-07-07T17:58:11.479Z,75.30
2023-07-07T18:00:39.972Z,75.23
2023-07-07T18:03:07.075Z,75.09
2023-07-07T18:05:34.284Z,76.21
2023-07-07T18:08:01.787Z,76.13
2023-07-07T18:10:32.037Z,76.42
2023-07-07T18:12:59.058Z,76.30
2023-07-07T18:15:27.881Z,76.32
2023-07-07T18:18:06.000Z,75.97
2023-07-07T18:21:34.801Z,76.02
2023-07-07T18:23:29.991Z,75.92
2023-07-07T18:25:57.325Z,76.03
2023-07-07T18:28:26.436Z,75.90
2023-07-07T18:30:57.156Z,76.19
2023-07-07T18:33:24.592Z,75.98
2023-07-07T18:35:51.409Z,76.04
2023-07-07T18:38:22.707Z,76.22
2023-07-07T18:40:49.821Z,76.29
2023-07-07T18:43:16.617Z,76.55
2023-07-07T18:45:43.509Z,76.34
2023-07-07T18:48:14.962Z,76.08
2023-07-07T18:50:42.098Z,76.10
2023-07-07T18:53:08.814Z,76.28
2023-07-07T18:55:35.513Z,76.24
2023-07-07T18:58:02.696Z,76.39
2023-07-07T19:00:36.881Z,76.42
2023-07-07T19:03:04.003Z,76.56
2023-07-07T19:05:32.170Z,76.56
2023-07-07T19:07:59.012Z,76.49
2023-07-07T19:10:38.484Z,76.39
2023-07-07T19:13:17.000Z,76.35
2023-07-07T19:15:46.671Z,76.55
2023-07-07T19:18:16.458Z,76.72
2023-07-07T19:20:43.698Z,76.93
2023-07-07T19:23:13.756Z,77.06
2023-07-07T19:25:40.790Z,77.01
2023-07-07T19:28:16.617Z,77.01
2023-07-07T19:30:43.795Z,76.97
2023-07-07T19:33:18.441Z,76.86
2023-07-07T19:35:46.321Z,76.92
2023-07-07T19:38:20.129Z,77.05
2023-07-07T19:40:51.022Z,77.31
2023-07-07T19:43:18.648Z,77.40
2023-07-07T19:45:50.248Z,77.46
2023-07-07T19:48:18.470Z,77.47
2023-07-07T19:50:50.626Z,77.68
2023-07-07T19:53:17.497Z,77.48
2023-07-07T19:55:44.955Z,77.68
2023-07-07T19:58:15.087Z,77.42
2023-07-07T20:00:42.245Z,77.53
2023-07-07T20:03:10.556Z,77.57
2023-07-07T20:05:38.639Z,77.63
2023-07-07T20:08:14.521Z,77.82
2023-07-07T20:10:44.053Z,77.84
2023-07-07T20:13:11.704Z,77.80
2023-07-07T20:15:39.756Z,77.67
2023-07-07T20:18:10.797Z,77.63
2023-07-07T20:20:37.467Z,77.54
2023-07-07T20:23:22.316Z,77.71
2023-07-07T20:25:49.452Z,77.74
2023-07-07T20:28:17.754Z,77.96
2023-07-07T20:30:44.475Z,77.94
2023-07-07T20:33:13.339Z,78.00
2023-07-07T20:35:40.465Z,78.02
2023-07-07T20:38:12.574Z,77.98
2023-07-07T20:40:43.381Z,77.80
2023-07-07T20:43:10.170Z,77.89
2023-07-07T20:45:37.681Z,78.17
2023-07-07T20:48:13.209Z,78.28
2023-07-07T20:50:49.804Z,78.50
2023-07-07T20:53:16.533Z,78.39
2023-07-07T20:55:43.312Z,78.62
2023-07-07T20:58:11.142Z,78.68
2023-07-07T21:00:42.639Z,78.66
2023-07-07T21:03:09.482Z,78.58
2023-07-07T21:05:36.669Z,78.57
2023-07-07T21:08:12.697Z,78.56
2023-07-07T21:10:40.120Z,78.70
2023-07-07T21:13:07.670Z,78.84
2023-07-07T21:15:34.457Z,78.94
2023-07-07T21:18:01.242Z,78.92
2023-07-07T21:20:36.959Z,79.02
2023-07-07T21:23:10.326Z,79.06
2023-07-07T21:25:37.363Z,79.05
2023-07-07T21:28:04.361Z,78.91
2023-07-07T21:30:31.223Z,78.76
2023-07-07T21:32:58.063Z,78.90
2023-07-07T21:35:25.069Z,78.92
2023-07-07T21:37:51.842Z,79.06
2023-07-07T21:40:21.938Z,79.15
2023-07-07T21:42:49.863Z,79.29
2023-07-07T21:45:19.690Z,79.24
2023-07-07T21:48:09.577Z,79.37
2023-07-07T21:50:36.319Z,79.43
2023-07-07T21:53:03.046Z,79.53
2023-07-07T21:55:29.759Z,79.42
2023-07-07T21:57:58.204Z,79.50
2023-07-07T22:00:27.743Z,79.55
2023-07-07T22:03:21.287Z,79.42
2023-07-07T22:05:50.996Z,79.56
2023-07-07T22:08:18.196Z,79.53
2023-07-07T22:10:52.494Z,79.59
2023-07-07T22:13:19.092Z,79.55
2023-07-07T22:15:46.176Z,79.31
2023-07-07T22:18:18.474Z,79.19
2023-07-07T22:20:54.071Z,79.27
2023-07-07T22:23:20.732Z,79.38
2023-07-07T22:25:47.665Z,79.49
2023-07-07T22:28:19.858Z,79.58
2023-07-07T22:30:53.093Z,79.69
2023-07-07T22:33:21.860Z,79.69
2023-07-07T22:35:50.048Z,79.78
2023-07-07T22:38:22.823Z,79.97
2023-07-07T22:40:53.220Z,79.99
2023-07-07T22:43:20.262Z,79.83
2023-07-07T22:45:59.094Z,79.82
2023-07-07T22:48:25.806Z,79.87
2023-07-07T22:50:52.765Z,79.93
2023-07-07T22:53:19.441Z,80.11
2023-07-07T22:55:47.726Z,80.27
2023-07-07T22:58:14.355Z,80.29
2023-07-07T23:00:41.758Z,80.34
2023-07-07T23:03:09.062Z,80.35
2023-07-07T23:05:39.478Z,80.27
2023-07-07T23:08:24.529Z,80.36
2023-07-07T23:10:51.892Z,80.16
2023-07-07T23:13:18.956Z,80.14
2023-07-07T23:15:46.025Z,80.24
2023-07-07T23:18:15.950Z,80.33
2023-07-07T23:20:42.920Z,80.44
2023-07-07T23:23:10.438Z,80.35
2023-07-07T23:25:37.708Z,80.38
2023-07-07T23:28:11.431Z,80.36
2023-07-07T23:31:06.312Z,80.45
2023-07-07T23:33:35.756Z,80.20
2023-07-07T23:36:12.701Z,80.02
2023-07-07T23:38:39.382Z,80.08
2023-07-07T23:41:10.108Z,80.10
2023-07-07T23:43:36.761Z,80.10
2023-07-07T23:46:08.997Z,80.26
2023-07-07T23:48:35.814Z,80.67
2023-07-07T23:51:02.938Z,80.67
2023-07-07T23:53:30.858Z,80.72
2023-07-07T23:55:57.760Z,80.54
2023-07-07T23:58:27.612Z,80.88
